Time;durP1;ratioP1;P1;durP2;ratioP2;P2;SDS_P1;SDS_P2;PMS_P1;PMS_P2;Temp;Humidity;BMP_temperature;BMP_pressure;BME280_temperature;BME280_humidity;BME280_pressure;Samples;Min_cycle;Max_cycle;Signal;HPM_P1;HPM_P2
2021/07/21 00:00:37;;;;;;;29.17;15.60;;;21.10;60.80;;;;;;5033397;28;20233;-86
2021/07/21 00:03:03;;;;;;;29.30;16.88;;;21.00;60.30;;;;;;5031992;28;20206;-84
2021/07/21 00:05:35;;;;;;;32.57;16.00;;;21.00;60.20;;;;;;5031505;28;20603;-86
2021/07/21 00:08:01;;;;;;;29.05;16.20;;;21.10;60.20;;;;;;5029824;28;20920;-86
2021/07/21 00:10:28;;;;;;;25.23;15.17;;;21.00;60.00;;;;;;5016065;28;20194;-86
2021/07/21 00:15:42;;;;;;;25.77;15.88;;;20.90;60.50;;;;;;4995336;28;20189;-86
2021/07/21 00:18:18;;;;;;;28.63;16.73;;;20.90;60.80;;;;;;4993721;28;20182;-86
2021/07/21 00:20:45;;;;;;;31.17;14.82;;;20.90;60.60;;;;;;5002835;28;20182;-86
2021/07/21 00:23:11;;;;;;;31.90;15.90;;;20.90;60.60;;;;;;5029169;28;20256;-85
2021/07/21 00:25:37;;;;;;;26.97;14.97;;;20.90;60.60;;;;;;5030682;28;20206;-85
2021/07/21 00:28:03;;;;;;;26.77;17.23;;;20.80;60.50;;;;;;5014313;28;20493;-85
2021/07/21 00:30:28;;;;;;;31.50;16.40;;;20.80;60.60;;;;;;5029878;28;20170;-86
2021/07/21 00:32:55;;;;;;;26.53;16.67;;;20.80;60.90;;;;;;5015184;28;20943;-86
2021/07/21 00:35:21;;;;;;;28.45;15.23;;;20.80;60.90;;;;;;5029814;28;20639;-86
2021/07/21 00:37:47;;;;;;;34.45;16.15;;;20.80;61.00;;;;;;5014686;28;20190;-85
2021/07/21 00:40:15;;;;;;;29.27;15.63;;;20.80;60.80;;;;;;5035746;28;20186;-85
2021/07/21 00:42:41;;;;;;;28.48;14.88;;;20.70;60.90;;;;;;5029829;28;20516;-85
2021/07/21 00:45:11;;;;;;;30.10;16.60;;;20.70;61.00;;;;;;5009814;28;20690;-85
2021/07/21 00:47:37;;;;;;;27.20;16.38;;;20.70;61.10;;;;;;5009691;28;20417;-85
2021/07/21 00:50:04;;;;;;;24.40;15.45;;;20.60;61.30;;;;;;5012291;28;20194;-85
2021/07/21 00:52:33;;;;;;;26.08;15.73;;;20.60;61.70;;;;;;5008905;28;20199;-85
2021/07/21 00:54:59;;;;;;;28.33;15.75;;;20.70;61.90;;;;;;4994668;28;20206;-85
2021/07/21 00:57:24;;;;;;;24.42;14.90;;;20.60;62.00;;;;;;5010111;28;20239;-85
2021/07/21 00:59:51;;;;;;;26.20;14.97;;;20.50;62.20;;;;;;5015889;28;20179;-85
2021/07/21 01:02:17;;;;;;;28.52;16.13;;;20.50;61.90;;;;;;5020153;28;20237;-85
2021/07/21 01:04:43;;;;;;;21.83;14.20;;;20.50;61.70;;;;;;5009684;28;20215;-85
2021/07/21 01:07:10;;;;;;;23.08;14.02;;;20.40;61.70;;;;;;5009267;28;20195;-85
2021/07/21 01:09:38;;;;;;;26.67;15.82;;;20.30;63.00;;;;;;5010488;28;20187;-85
2021/07/21 01:12:30;;;;;;;26.73;15.82;;;20.30;62.20;;;;;;4992244;28;20568;-85
2021/07/21 01:15:06;;;;;;;25.10;14.43;;;20.40;62.00;;;;;;4993061;28;20186;-85
2021/07/21 01:17:45;;;;;;;26.08;14.85;;;20.30;62.20;;;;;;4992782;28;20265;-85
2021/07/21 01:20:20;;;;;;;31.85;15.75;;;20.30;62.00;;;;;;4998299;28;20178;-85
2021/07/21 01:22:51;;;;;;;23.80;14.50;;;20.30;62.10;;;;;;5014201;28;20190;-85
2021/07/21 01:25:23;;;;;;;18.08;13.20;;;20.20;62.00;;;;;;5029026;28;20204;-84
2021/07/21 01:27:56;;;;;;;26.05;14.95;;;20.30;61.90;;;;;;5030070;28;20721;-86
2021/07/21 01:30:44;;;;;;;27.55;15.27;;;20.20;61.80;;;;;;5013848;28;20194;-86
2021/07/21 01:33:13;;;;;;;26.83;15.40;;;20.20;62.10;;;;;;5015354;28;20732;-85
2021/07/21 01:36:09;;;;;;;24.92;15.05;;;20.10;62.50;;;;;;5029503;28;20221;-84
2021/07/21 01:38:44;;;;;;;21.90;14.43;;;20.10;62.50;;;;;;5021674;28;20181;-85
2021/07/21 01:41:26;;;;;;;29.25;14.18;;;20.20;62.40;;;;;;5040817;28;20645;-86
2021/07/21 01:44:01;;;;;;;27.67;15.15;;;20.10;62.40;;;;;;5037482;28;20184;-85
2021/07/21 01:46:28;;;;;;;27.85;13.75;;;20.20;62.30;;;;;;5040511;28;20225;-85
2021/07/21 01:48:57;;;;;;;26.65;15.85;;;20.20;62.30;;;;;;5035757;28;20594;-85
2021/07/21 01:51:25;;;;;;;24.92;14.38;;;20.20;62.00;;;;;;5003594;28;20180;-86
2021/07/21 01:53:53;;;;;;;23.48;13.25;;;20.10;62.10;;;;;;5004087;28;20195;-86
2021/07/21 01:56:21;;;;;;;26.95;14.00;;;20.00;62.20;;;;;;5004113;28;20183;-85
2021/07/21 01:58:51;;;;;;;21.73;12.18;;;20.00;62.50;;;;;;5004126;28;20183;-86
2021/07/21 02:01:17;;;;;;;25.13;14.20;;;20.00;62.60;;;;;;5004046;28;20216;-86
2021/07/21 02:03:44;;;;;;;25.55;13.98;;;20.00;62.70;;;;;;5004818;28;20234;-85
2021/07/21 02:06:11;;;;;;;29.38;15.77;;;20.00;62.80;;;;;;5004640;28;20231;-86
2021/07/21 02:08:37;;;;;;;28.75;17.35;;;20.00;63.00;;;;;;5010186;28;20516;-85
2021/07/21 02:11:04;;;;;;;29.25;15.48;;;19.90;63.10;;;;;;5006647;28;20180;-85
2021/07/21 02:13:31;;;;;;;25.90;15.40;;;20.10;63.10;;;;;;5003024;28;20214;-85
2021/07/21 02:15:59;;;;;;;24.75;14.95;;;20.00;63.10;;;;;;4998680;28;20186;-85
2021/07/21 02:18:25;;;;;;;26.67;14.30;;;20.00;62.90;;;;;;5006464;28;20203;-85
2021/07/21 02:20:52;;;;;;;26.67;14.18;;;19.90;63.00;;;;;;5006046;28;20183;-84
2021/07/21 02:23:20;;;;;;;28.00;14.57;;;19.90;63.10;;;;;;5005120;28;20272;-85
2021/07/21 02:25:47;;;;;;;24.98;15.05;;;19.90;63.30;;;;;;5005567;28;20246;-86
2021/07/21 02:28:14;;;;;;;23.15;13.48;;;19.90;63.00;;;;;;5008829;28;20217;-86
2021/07/21 02:30:42;;;;;;;22.33;14.00;;;19.90;62.90;;;;;;5007769;28;20187;-86
2021/07/21 02:33:23;;;;;;;23.42;16.25;;;19.80;62.90;;;;;;5002941;28;20593;-86
2021/07/21 02:35:50;;;;;;;27.02;14.20;;;19.80;63.20;;;;;;4996105;28;20281;-85
2021/07/21 02:38:16;;;;;;;24.48;14.02;;;19.70;63.40;;;;;;5008960;28;20187;-86
2021/07/21 02:40:43;;;;;;;26.05;14.50;;;19.70;63.80;;;;;;5013599;28;20191;-86
2021/07/21 02:43:09;;;;;;;31.83;16.10;;;19.70;63.90;;;;;;5010641;28;20199;-85
2021/07/21 02:45:36;;;;;;;27.33;15.37;;;19.70;63.90;;;;;;4995669;28;20203;-84
2021/07/21 02:48:06;;;;;;;26.95;14.38;;;19.70;63.90;;;;;;4996363;28;20419;-84
2021/07/21 02:50:32;;;;;;;27.25;15.65;;;19.70;63.90;;;;;;4996700;28;20179;-84
2021/07/21 02:53:06;;;;;;;31.08;14.27;;;19.70;63.90;;;;;;4995654;28;20278;-84
2021/07/21 02:55:49;;;;;;;21.00;13.55;;;19.70;64.10;;;;;;4996388;28;20234;-84
2021/07/21 02:58:26;;;;;;;25.95;14.88;;;19.70;64.80;;;;;;4996851;28;20194;-85
2021/07/21 03:00:57;;;;;;;22.55;15.05;;;19.60;64.20;;;;;;4996078;28;20214;-85
2021/07/21 03:03:23;;;;;;;23.90;13.63;;;19.50;64.40;;;;;;4995320;28;20290;-86
2021/07/21 03:05:55;;;;;;;28.52;15.10;;;19.50;64.80;;;;;;4996560;28;20207;-86
2021/07/21 03:08:25;;;;;;;30.42;15.52;;;19.50;64.80;;;;;;4995440;28;20164;-86
2021/07/21 03:10:52;;;;;;;28.35;15.32;;;19.50;64.90;;;;;;4994922;28;20191;-86
2021/07/21 03:13:23;;;;;;;27.02;17.60;;;19.40;65.10;;;;;;4996356;28;20246;-86
2021/07/21 03:15:49;;;;;;;27.13;14.63;;;19.30;65.40;;;;;;4997212;28;20175;-86
2021/07/21 03:18:18;;;;;;;27.05;14.00;;;19.30;65.70;;;;;;5007824;28;20638;-86
2021/07/21 03:20:47;;;;;;;24.65;14.40;;;19.40;65.60;;;;;;5004319;28;20645;-86
2021/07/21 03:23:13;;;;;;;23.73;14.65;;;19.40;65.60;;;;;;5030809;28;20205;-86
2021/07/21 03:25:42;;;;;;;23.73;13.85;;;19.30;65.70;;;;;;5016102;28;20234;-86
2021/07/21 03:28:08;;;;;;;27.75;14.40;;;19.30;65.70;;;;;;5030872;28;20175;-86
2021/07/21 03:30:35;;;;;;;25.65;15.82;;;19.30;65.60;;;;;;5015850;28;20171;-86
2021/07/21 03:33:03;;;;;;;28.58;16.90;;;19.20;65.50;;;;;;5030575;28;20194;-86
2021/07/21 03:35:32;;;;;;;23.10;14.52;;;19.20;65.50;;;;;;5008280;28;20229;-86
2021/07/21 03:37:58;;;;;;;23.48;14.65;;;19.20;65.30;;;;;;5010624;28;20193;-86
2021/07/21 03:40:29;;;;;;;23.45;14.30;;;19.20;65.50;;;;;;4999378;28;20206;-85
2021/07/21 03:42:55;;;;;;;24.48;15.23;;;19.20;65.50;;;;;;4999278;28;20206;-86
2021/07/21 03:45:24;;;;;;;28.38;15.75;;;19.20;65.30;;;;;;4996517;28;20218;-85
2021/07/21 03:47:50;;;;;;;25.73;14.52;;;19.30;65.20;;;;;;4998574;28;20179;-86
2021/07/21 03:50:21;;;;;;;22.83;13.80;;;19.30;65.10;;;;;;4999799;28;20634;-86
2021/07/21 03:52:48;;;;;;;23.63;14.68;;;19.30;65.10;;;;;;5012969;28;20325;-86
2021/07/21 03:55:15;;;;;;;22.48;14.40;;;19.30;65.30;;;;;;5016557;28;20179;-86
2021/07/21 03:57:43;;;;;;;25.45;15.65;;;19.30;65.10;;;;;;5014763;28;20230;-85
2021/07/21 04:00:11;;;;;;;30.27;15.93;;;19.30;65.20;;;;;;5012908;28;20716;-85
2021/07/21 04:02:40;;;;;;;23.25;15.00;;;19.10;65.50;;;;;;5013730;28;20211;-85
2021/07/21 04:05:08;;;;;;;25.67;15.50;;;19.10;65.80;;;;;;4996556;28;20210;-85
2021/07/21 04:07:36;;;;;;;23.90;14.65;;;19.20;65.80;;;;;;5017615;28;20210;-85
2021/07/21 04:10:05;;;;;;;21.88;13.30;;;19.20;65.80;;;;;;5012078;28;20183;-88
2021/07/21 04:12:33;;;;;;;23.75;15.15;;;19.30;65.70;;;;;;5011481;28;20211;-87
2021/07/21 04:15:00;;;;;;;24.25;13.98;;;19.30;65.50;;;;;;5011777;28;20187;-87
2021/07/21 04:17:29;;;;;;;30.98;15.88;;;19.30;65.40;;;;;;5010955;28;20210;-87
2021/07/21 04:19:55;;;;;;;25.45;16.25;;;19.40;65.10;;;;;;5012460;28;20183;-86
2021/07/21 04:22:22;;;;;;;27.58;16.58;;;19.40;65.00;;;;;;5003291;28;20278;-87
2021/07/21 04:24:48;;;;;;;24.42;15.57;;;19.50;65.00;;;;;;5000904;28;20186;-85
2021/07/21 04:27:14;;;;;;;23.23;14.60;;;19.50;65.00;;;;;;4985170;28;20182;-85
2021/07/21 04:29:42;;;;;;;24.60;14.25;;;19.50;64.80;;;;;;4980535;28;20422;-85
2021/07/21 04:32:10;;;;;;;20.33;13.35;;;19.60;64.60;;;;;;4997704;28;20310;-85
2021/07/21 04:34:35;;;;;;;25.40;14.75;;;19.50;64.70;;;;;;4999335;28;20179;-85
2021/07/21 04:37:01;;;;;;;25.27;16.40;;;19.60;64.70;;;;;;4996271;28;20175;-85
2021/07/21 04:39:29;;;;;;;20.58;15.40;;;19.50;64.70;;;;;;4996465;28;20477;-85
2021/07/21 04:41:56;;;;;;;22.67;14.82;;;19.60;64.50;;;;;;5013167;28;20302;-85
2021/07/21 04:44:23;;;;;;;22.88;13.93;;;19.70;64.40;;;;;;5012758;28;20229;-86
2021/07/21 04:46:49;;;;;;;21.73;14.57;;;19.60;64.30;;;;;;5011233;28;20213;-86
2021/07/21 04:49:21;;;;;;;23.02;13.02;;;19.70;64.20;;;;;;5008956;28;20183;-85
2021/07/21 04:51:48;;;;;;;21.95;14.75;;;19.80;63.70;;;;;;4992639;28;20203;-86
2021/07/21 04:54:20;;;;;;;25.13;15.02;;;19.80;63.40;;;;;;4993813;28;20584;-86
2021/07/21 04:56:46;;;;;;;18.77;13.90;;;19.80;63.40;;;;;;4993599;28;20198;-86
2021/07/21 04:59:12;;;;;;;21.17;14.00;;;19.80;63.30;;;;;;4994472;28;20622;-86
2021/07/21 05:01:38;;;;;;;26.90;14.43;;;19.90;63.00;;;;;;4993449;28;20254;-86
2021/07/21 05:04:06;;;;;;;25.42;14.77;;;19.90;62.70;;;;;;4994664;28;20171;-86
2021/07/21 05:06:32;;;;;;;23.13;14.98;;;20.00;62.30;;;;;;4992958;28;20289;-86
2021/07/21 05:08:59;;;;;;;20.43;14.10;;;20.10;61.80;;;;;;4993546;28;20225;-86
2021/07/21 05:11:25;;;;;;;21.83;14.05;;;20.10;61.50;;;;;;4994659;28;20468;-85
2021/07/21 05:13:51;;;;;;;20.63;13.00;;;20.20;61.20;;;;;;4994328;28;20195;-86
2021/07/21 05:16:17;;;;;;;19.45;13.63;;;20.30;60.90;;;;;;4994965;28;20171;-86
2021/07/21 05:18:46;;;;;;;22.30;14.07;;;20.30;60.70;;;;;;4993311;28;20646;-86
2021/07/21 05:21:12;;;;;;;23.58;13.80;;;20.40;60.60;;;;;;4992383;28;20217;-85
2021/07/21 05:23:39;;;;;;;20.65;13.45;;;20.60;60.30;;;;;;5009058;28;20217;-86
2021/07/21 05:26:07;;;;;;;22.05;13.48;;;20.70;60.00;;;;;;4992801;28;20203;-86
2021/07/21 05:28:38;;;;;;;24.08;14.32;;;20.80;59.50;;;;;;4993207;28;20164;-85
2021/07/21 05:31:04;;;;;;;20.30;12.02;;;21.10;59.10;;;;;;4992904;28;20164;-86
2021/07/21 05:33:31;;;;;;;16.97;12.60;;;21.80;58.00;;;;;;5014856;28;20266;-86
2021/07/21 05:35:58;;;;;;;28.13;12.73;;;22.70;55.90;;;;;;4995973;28;20429;-86
2021/07/21 05:38:23;;;;;;;17.40;11.33;;;23.40;53.30;;;;;;4992878;28;20968;-88
2021/07/21 05:40:49;;;;;;;19.63;12.07;;;24.20;50.30;;;;;;4992592;28;20423;-86
2021/07/21 05:43:15;;;;;;;20.23;12.40;;;25.00;47.40;;;;;;4992252;28;20233;-87
2021/07/21 05:45:41;;;;;;;17.57;11.90;;;25.80;45.40;;;;;;5006936;28;20484;-86
2021/07/21 05:48:07;;;;;;;17.73;11.00;;;26.40;43.80;;;;;;5009601;28;20466;-87
2021/07/21 05:50:33;;;;;;;18.03;11.60;;;27.00;41.60;;;;;;4993316;28;20628;-87
2021/07/21 05:53:02;;;;;;;18.77;11.40;;;27.50;39.80;;;;;;4995659;28;20195;-87
2021/07/21 05:55:27;;;;;;;15.77;11.63;;;27.80;37.70;;;;;;4993463;28;20187;-87
2021/07/21 05:57:53;;;;;;;14.80;11.20;;;27.90;36.70;;;;;;4994872;28;20403;-87
2021/07/21 06:00:19;;;;;;;17.53;12.53;;;27.80;36.70;;;;;;4992840;28;20237;-87
2021/07/21 06:02:45;;;;;;;17.03;11.43;;;27.80;36.90;;;;;;4996062;28;20203;-87
2021/07/21 06:05:11;;;;;;;18.37;12.90;;;27.70;36.60;;;;;;4996813;28;21061;-87
2021/07/21 06:07:37;;;;;;;19.90;13.20;;;27.70;37.00;;;;;;4995946;28;20175;-87
2021/07/21 06:10:04;;;;;;;13.70;11.43;;;27.70;37.50;;;;;;4997721;28;20993;-87
2021/07/21 06:12:32;;;;;;;17.57;14.67;;;27.90;37.70;;;;;;4995084;28;20218;-87
2021/07/21 06:14:58;;;;;;;15.63;12.30;;;28.30;37.50;;;;;;4995777;28;20426;-87
2021/07/21 06:17:24;;;;;;;16.03;12.90;;;28.60;36.70;;;;;;4996622;28;20505;-87
2021/07/21 06:19:50;;;;;;;16.53;12.57;;;29.00;36.90;;;;;;4995985;28;20524;-87
2021/07/21 06:22:18;;;;;;;16.47;13.77;;;29.40;36.40;;;;;;5011395;28;20203;-86
2021/07/21 06:24:45;;;;;;;32.53;14.70;;;29.90;35.50;;;;;;4998101;28;20178;-87
2021/07/21 06:27:11;;;;;;;18.17;14.50;;;30.40;34.60;;;;;;5012049;28;20501;-87
2021/07/21 06:29:37;;;;;;;21.93;14.13;;;30.80;33.50;;;;;;4999416;28;20437;-86
2021/07/21 06:32:03;;;;;;;15.23;12.60;;;31.10;33.70;;;;;;4995613;28;20441;-88
2021/07/21 06:34:29;;;;;;;14.03;12.27;;;31.40;33.00;;;;;;4996644;28;20602;-86
2021/07/21 06:36:55;;;;;;;16.07;12.10;;;31.80;32.00;;;;;;4995985;28;20426;-87
2021/07/21 06:39:20;;;;;;;13.90;11.63;;;32.10;31.30;;;;;;5010103;28;20191;-84
2021/07/21 06:41:46;;;;;;;16.73;11.97;;;32.30;30.50;;;;;;4999579;28;20293;-85
2021/07/21 06:44:12;;;;;;;14.63;12.40;;;32.00;30.60;;;;;;5001995;28;20186;-84
2021/07/21 06:46:38;;;;;;;14.60;11.63;;;31.90;30.60;;;;;;4999975;28;20214;-84
2021/07/21 06:49:04;;;;;;;13.80;11.33;;;31.80;30.80;;;;;;4999574;28;20775;-84
2021/07/21 06:51:30;;;;;;;18.47;12.77;;;31.60;30.80;;;;;;4997226;28;20187;-84
2021/07/21 06:53:56;;;;;;;14.43;11.60;;;31.50;31.10;;;;;;4997704;28;20638;-84
2021/07/21 06:56:21;;;;;;;16.37;12.87;;;31.30;31.30;;;;;;4999099;28;20450;-84
2021/07/21 06:58:50;;;;;;;14.87;10.13;;;31.10;31.50;;;;;;4998785;28;20254;-84
2021/07/21 07:01:16;;;;;;;15.53;10.50;;;30.90;31.60;;;;;;4999415;28;20258;-85
2021/07/21 07:03:42;;;;;;;13.80;9.90;;;30.60;31.60;;;;;;4999005;28;20443;-84
2021/07/21 07:06:09;;;;;;;18.03;9.33;;;30.20;32.10;;;;;;4996455;28;20519;-85
2021/07/21 07:08:34;;;;;;;13.20;9.20;;;29.90;32.20;;;;;;4996706;28;20498;-86
2021/07/21 07:11:00;;;;;;;12.17;8.73;;;29.50;32.90;;;;;;4995191;28;20426;-86
2021/07/21 07:13:26;;;;;;;17.67;10.63;;;28.90;33.10;;;;;;4995010;28;20220;-86
2021/07/21 07:15:54;;;;;;;16.00;9.33;;;27.90;34.30;;;;;;4997635;28;20506;-86
2021/07/21 07:18:20;;;;;;;11.43;8.57;;;27.40;35.90;;;;;;4995005;28;20216;-85
2021/07/21 07:20:47;;;;;;;14.80;10.17;;;27.00;37.60;;;;;;5004302;28;20981;-85
2021/07/21 07:23:14;;;;;;;10.00;7.73;;;26.70;37.80;;;;;;5030591;28;20236;-85
2021/07/21 07:25:40;;;;;;;14.43;10.40;;;26.30;38.40;;;;;;5017668;28;20466;-85
2021/07/21 07:28:07;;;;;;;13.37;8.93;;;26.40;39.30;;;;;;5037668;28;20498;-85
2021/07/21 07:30:32;;;;;;;15.57;9.67;;;26.30;39.50;;;;;;5001372;28;20430;-84
2021/07/21 07:32:58;;;;;;;14.33;9.77;;;26.30;39.80;;;;;;4995029;28;20453;-84
2021/07/21 07:35:25;;;;;;;12.77;9.13;;;26.40;39.90;;;;;;4995929;28;20466;-82
2021/07/21 07:37:50;;;;;;;15.00;9.00;;;26.30;40.00;;;;;;4994615;28;20439;-84
2021/07/21 07:40:17;;;;;;;17.70;10.57;;;26.20;40.60;;;;;;4994484;28;20847;-85
2021/07/21 07:42:43;;;;;;;17.30;11.53;;;26.10;42.10;;;;;;4995472;28;20208;-85
2021/07/21 07:45:09;;;;;;;16.00;10.50;;;26.10;42.80;;;;;;5009798;28;20461;-85
2021/07/21 07:47:35;;;;;;;14.80;10.70;;;25.90;42.70;;;;;;4998688;28;20222;-86
2021/07/21 07:50:02;;;;;;;15.90;10.73;;;25.90;42.30;;;;;;4999495;28;20418;-87
2021/07/21 07:52:28;;;;;;;15.90;11.30;;;25.80;43.10;;;;;;4997315;28;20449;-87
2021/07/21 07:54:54;;;;;;;14.43;10.73;;;25.70;43.80;;;;;;4997315;28;20426;-87
2021/07/21 07:57:20;;;;;;;15.77;8.77;;;25.50;43.50;;;;;;4997568;28;20253;-87
2021/07/21 07:59:46;;;;;;;14.80;9.23;;;25.40;43.50;;;;;;4997784;28;20210;-88
2021/07/21 08:02:11;;;;;;;10.60;8.10;;;25.40;43.70;;;;;;4995122;28;20470;-87
2021/07/21 08:04:37;;;;;;;10.40;8.00;;;25.20;43.60;;;;;;4995038;28;20191;-88
2021/07/21 08:07:03;;;;;;;10.33;7.90;;;25.10;43.90;;;;;;4997428;28;20259;-88
2021/07/21 08:09:30;;;;;;;12.33;8.80;;;25.20;43.80;;;;;;4994591;28;20226;-88
2021/07/21 08:11:58;;;;;;;10.37;7.73;;;25.20;43.20;;;;;;4996770;28;20442;-88
2021/07/21 08:14:24;;;;;;;8.47;6.10;;;25.20;42.70;;;;;;4995870;28;20441;-88
2021/07/21 08:16:51;;;;;;;10.57;8.00;;;25.10;41.70;;;;;;4993858;28;20517;-88
2021/07/21 08:19:19;;;;;;;11.13;6.77;;;25.00;42.50;;;;;;4995682;28;20923;-88
2021/07/21 08:21:45;;;;;;;13.77;7.20;;;24.90;42.80;;;;;;4993397;28;20434;-88
2021/07/21 08:24:11;;;;;;;8.23;6.30;;;24.90;42.80;;;;;;5002845;28;20510;-88
2021/07/21 08:26:37;;;;;;;8.07;6.63;;;24.90;41.70;;;;;;4995522;28;20976;-88
2021/07/21 08:29:03;;;;;;;10.60;6.50;;;25.00;41.90;;;;;;4993501;28;20423;-88
2021/07/21 08:31:29;;;;;;;8.37;6.10;;;24.90;41.50;;;;;;4994025;28;20233;-88
2021/07/21 08:34:00;;;;;;;10.20;6.70;;;24.90;42.20;;;;;;4993736;28;20505;-88
2021/07/21 08:36:29;;;;;;;10.40;7.90;;;24.90;42.70;;;;;;4993594;28;20180;-88
2021/07/21 08:38:55;;;;;;;10.17;6.27;;;24.80;41.50;;;;;;4994244;28;20430;-88
2021/07/21 08:41:21;;;;;;;10.57;5.70;;;24.70;40.60;;;;;;4992638;28;20920;-88
2021/07/21 08:43:47;;;;;;;12.03;7.30;;;24.80;41.30;;;;;;4993356;28;20290;-88
2021/07/21 08:46:13;;;;;;;8.60;6.57;;;24.90;41.60;;;;;;4993054;28;20489;-91
2021/07/21 08:48:39;;;;;;;10.00;6.73;;;24.90;42.00;;;;;;4993283;28;20172;-90
2021/07/21 08:51:05;;;;;;;10.27;5.93;;;25.00;40.60;;;;;;5002037;28;20446;-89
2021/07/21 08:53:31;;;;;;;11.63;7.40;;;25.00;41.00;;;;;;5000874;28;20199;-90
2021/07/21 08:55:58;;;;;;;14.37;7.93;;;24.90;40.70;;;;;;4994052;28;20426;-90
2021/07/21 08:58:24;;;;;;;11.40;6.87;;;24.80;41.80;;;;;;4993392;28;20429;-90
2021/07/21 09:00:52;;;;;;;13.57;7.90;;;24.80;42.50;;;;;;4994144;28;20863;-90
2021/07/21 09:03:20;;;;;;;10.93;7.07;;;24.90;42.50;;;;;;4995701;28;20525;-90
2021/07/21 09:05:48;;;;;;;9.00;6.73;;;24.90;41.90;;;;;;5012364;28;20466;-90
2021/07/21 09:08:15;;;;;;;10.63;8.00;;;24.90;42.20;;;;;;4998735;28;20923;-90
2021/07/21 09:10:43;;;;;;;10.90;7.70;;;25.00;42.50;;;;;;4993763;28;20441;-90
2021/07/21 09:13:09;;;;;;;13.80;7.60;;;25.00;42.50;;;;;;4993448;28;20507;-90
2021/07/21 09:15:35;;;;;;;7.73;6.10;;;24.70;41.30;;;;;;4994262;28;20418;-91
2021/07/21 09:18:12;;;;;;;11.80;6.87;;;24.60;41.50;;;;;;4993935;28;20829;-90
2021/07/21 09:20:39;;;;;;;9.40;7.10;;;24.70;42.50;;;;;;4997756;28;20425;-90
2021/07/21 09:23:05;;;;;;;7.77;6.37;;;24.90;42.10;;;;;;4997187;28;20965;-90
2021/07/21 09:25:34;;;;;;;10.90;6.60;;;24.80;40.90;;;;;;4993893;28;20458;-91
2021/07/21 09:28:01;;;;;;;8.67;6.40;;;24.80;40.10;;;;;;4993331;28;20836;-90
2021/07/21 09:30:29;;;;;;;8.50;6.13;;;24.90;40.40;;;;;;4993748;28;20422;-90
2021/07/21 09:33:05;;;;;;;11.60;7.13;;;25.00;40.70;;;;;;4991844;28;20513;-91
2021/07/21 09:35:34;;;;;;;10.97;6.03;;;24.90;40.90;;;;;;4995198;28;21007;-91
2021/07/21 09:38:11;;;;;;;9.40;6.70;;;24.90;41.00;;;;;;4997018;28;20607;-90
2021/07/21 09:40:40;;;;;;;11.00;7.33;;;24.70;41.30;;;;;;4996923;28;21027;-90
2021/07/21 09:43:14;;;;;;;9.60;7.03;;;24.60;42.30;;;;;;4996705;28;20959;-90
2021/07/21 09:45:42;;;;;;;13.60;7.77;;;24.50;41.80;;;;;;4998334;28;20516;-90
2021/07/21 09:48:08;;;;;;;11.33;8.17;;;24.50;41.90;;;;;;4997062;28;20415;-90
2021/07/21 09:50:36;;;;;;;9.43;6.80;;;24.50;41.60;;;;;;5000003;28;20414;-90
2021/07/21 09:53:07;;;;;;;10.17;6.77;;;24.60;41.30;;;;;;5003739;28;20533;-90
2021/07/21 09:55:34;;;;;;;10.07;6.47;;;24.60;41.80;;;;;;5002761;28;20414;-90
2021/07/21 09:58:03;;;;;;;9.03;6.20;;;24.80;41.80;;;;;;5003894;28;20426;-90
2021/07/21 10:00:32;;;;;;;9.37;6.93;;;24.70;41.80;;;;;;5009518;28;20507;-90
2021/07/21 10:03:18;;;;;;;11.93;8.07;;;24.50;41.30;;;;;;4996157;28;20438;-90
2021/07/21 10:06:04;;;;;;;10.80;7.57;;;24.50;41.90;;;;;;4996199;28;20553;-90
2021/07/21 10:08:41;;;;;;;9.63;7.27;;;24.60;43.20;;;;;;4989232;28;20423;-90
2021/07/21 10:11:26;;;;;;;9.53;6.80;;;24.90;43.40;;;;;;4996518;28;20418;-90
2021/07/21 10:14:07;;;;;;;8.23;6.73;;;25.20;42.80;;;;;;4996148;28;20588;-91
2021/07/21 10:16:51;;;;;;;8.57;7.20;;;25.30;41.00;;;;;;4996123;28;20454;-90
2021/07/21 10:19:25;;;;;;;7.10;5.83;;;25.10;40.80;;;;;;5003543;28;20422;-90
2021/07/21 10:22:01;;;;;;;8.80;6.57;;;25.20;41.40;;;;;;4995915;28;20469;-90
2021/07/21 10:24:32;;;;;;;12.10;7.00;;;25.10;41.20;;;;;;4995972;28;20488;-91
2021/07/21 10:26:59;;;;;;;10.07;7.20;;;25.30;42.50;;;;;;4995885;28;20457;-91
2021/07/21 10:29:25;;;;;;;9.37;7.57;;;25.40;42.00;;;;;;4995784;28;20414;-90
2021/07/21 10:31:52;;;;;;;11.10;7.10;;;25.50;41.00;;;;;;4995646;28;20442;-91
2021/07/21 10:34:19;;;;;;;14.00;7.03;;;25.60;39.90;;;;;;4996214;28;20501;-90
2021/07/21 10:36:46;;;;;;;11.17;6.60;;;25.30;39.90;;;;;;4995648;28;20475;-90
2021/07/21 10:39:14;;;;;;;10.30;7.10;;;25.20;40.70;;;;;;4995830;28;20925;-91
2021/07/21 10:41:41;;;;;;;10.30;6.13;;;25.20;40.60;;;;;;4995448;28;20427;-90
2021/07/21 10:44:09;;;;;;;10.30;7.10;;;25.40;41.30;;;;;;4996986;28;20422;-90
2021/07/21 10:46:39;;;;;;;11.03;7.07;;;25.40;40.20;;;;;;4994755;28;20557;-90
2021/07/21 10:49:52;;;;;;;9.60;6.70;;;25.40;40.00;;;;;;4996963;28;20773;-91
2021/07/21 10:52:43;;;;;;;9.33;6.80;;;25.70;40.10;;;;;;4958872;28;20443;-90
2021/07/21 10:55:28;;;;;;;8.50;6.23;;;25.80;39.30;;;;;;4959257;28;20558;-90
2021/07/21 11:00:55;;;;;;;10.80;7.40;;;25.90;39.10;;;;;;4997323;28;20397;-90
2021/07/21 11:03:28;;;;;;;7.80;6.67;;;26.00;39.20;;;;;;4994942;28;20442;-90
2021/07/21 11:06:02;;;;;;;13.30;7.10;;;25.90;38.90;;;;;;4995676;28;20470;-90
2021/07/21 11:08:29;;;;;;;10.93;7.00;;;25.90;38.90;;;;;;5007999;28;20403;-90
2021/07/21 11:11:16;;;;;;;8.23;6.77;;;25.80;38.90;;;;;;4995894;28;20420;-90
2021/07/21 11:13:42;;;;;;;10.53;6.53;;;25.80;39.00;;;;;;4994813;28;20454;-90
2021/07/21 11:16:46;;;;;;;8.30;5.70;;;25.80;39.20;;;;;;4995797;28;20957;-90
2021/07/21 11:19:33;;;;;;;6.47;5.73;;;25.60;39.40;;;;;;4998566;28;20322;-90
2021/07/21 11:22:00;;;;;;;7.97;5.97;;;25.80;39.40;;;;;;4994710;28;20438;-90
2021/07/21 11:24:28;;;;;;;9.60;6.73;;;25.90;39.20;;;;;;4994645;28;20445;-90
2021/07/21 11:26:55;;;;;;;8.37;6.53;;;26.20;39.60;;;;;;4994943;28;20466;-90
2021/07/21 11:29:27;;;;;;;11.60;7.50;;;26.00;39.00;;;;;;4994866;28;20513;-90
2021/07/21 11:31:56;;;;;;;11.53;7.77;;;26.00;40.00;;;;;;4994408;28;20436;-90
2021/07/21 11:34:29;;;;;;;9.37;6.40;;;25.90;39.00;;;;;;4994789;28;20414;-90
2021/07/21 11:37:09;;;;;;;10.80;6.23;;;25.90;38.70;;;;;;4994658;28;20486;-90
2021/07/21 11:39:40;;;;;;;11.37;6.87;;;25.80;39.20;;;;;;4995143;28;21056;-90
2021/07/21 11:42:30;;;;;;;9.27;6.90;;;25.90;39.10;;;;;;4994294;28;20445;-90
2021/07/21 11:45:05;;;;;;;8.43;6.67;;;26.10;39.30;;;;;;4990489;28;20411;-90
2021/07/21 11:47:39;;;;;;;9.80;7.23;;;25.90;38.90;;;;;;4995444;28;20414;-90
2021/07/21 11:50:19;;;;;;;10.40;6.80;;;25.80;39.40;;;;;;4994840;28;20418;-90
2021/07/21 11:52:56;;;;;;;10.07;7.20;;;25.90;39.60;;;;;;4994555;28;20913;-90
2021/07/21 11:55:25;;;;;;;7.97;6.23;;;26.00;39.60;;;;;;4994168;28;20454;-91
2021/07/21 11:57:52;;;;;;;8.50;6.30;;;26.10;39.70;;;;;;4994904;28;20434;-90
2021/07/21 12:00:21;;;;;;;10.10;7.13;;;26.10;39.50;;;;;;4994773;28;20419;-90
2021/07/21 12:02:57;;;;;;;13.10;6.60;;;26.00;39.40;;;;;;4994853;28;20438;-90
2021/07/21 12:05:23;;;;;;;8.80;6.30;;;26.10;39.70;;;;;;4996840;28;20469;-90
2021/07/21 12:07:48;;;;;;;9.47;6.90;;;26.30;38.90;;;;;;4994816;28;20423;-90
2021/07/21 12:10:16;;;;;;;11.10;6.73;;;26.40;38.80;;;;;;4996660;28;20709;-90
2021/07/21 12:12:43;;;;;;;11.20;6.97;;;26.30;38.40;;;;;;4997527;28;20218;-89
2021/07/21 12:15:11;;;;;;;6.80;6.03;;;26.30;38.70;;;;;;5008302;28;20447;-90
2021/07/21 12:17:36;;;;;;;7.53;6.00;;;26.20;38.30;;;;;;5006724;28;20427;-90
2021/07/21 12:20:09;;;;;;;12.00;6.57;;;26.30;38.90;;;;;;4998490;28;20430;-90
2021/07/21 12:22:38;;;;;;;8.20;6.37;;;26.20;39.00;;;;;;4995507;28;20585;-90
2021/07/21 12:25:16;;;;;;;8.83;6.30;;;26.20;39.00;;;;;;4995527;28;20510;-90
2021/07/21 12:27:52;;;;;;;7.63;6.27;;;26.20;38.80;;;;;;4995298;28;20383;-91
2021/07/21 12:30:21;;;;;;;8.37;6.40;;;26.50;38.30;;;;;;4995473;28;20411;-90
2021/07/21 12:32:49;;;;;;;13.50;7.03;;;26.60;37.70;;;;;;4994105;28;20435;-90
2021/07/21 12:35:19;;;;;;;11.07;6.87;;;26.60;37.20;;;;;;4994783;28;20447;-89
2021/07/21 12:37:47;;;;;;;9.77;6.57;;;26.50;37.60;;;;;;4997295;28;20420;-90
2021/07/21 12:40:16;;;;;;;10.83;6.77;;;26.70;37.70;;;;;;4997351;28;20772;-90
2021/07/21 12:42:43;;;;;;;9.30;6.20;;;26.70;37.60;;;;;;4996777;28;20448;-90
2021/07/21 12:45:14;;;;;;;8.23;6.13;;;26.70;38.20;;;;;;4996109;28;20654;-90
2021/07/21 12:47:45;;;;;;;9.53;6.90;;;26.80;37.60;;;;;;4996198;28;20422;-90